createdAt,value
2023-05-05T00:02:37.592Z,15.10
2023-05-05T00:07:36.441Z,33.45
2023-05-05T00:12:35.228Z,24.05
2023-05-05T00:17:35.532Z,20.50
2023-05-05T00:22:38.617Z,25.15
2023-05-05T00:27:39.516Z,17.17
2023-05-05T00:32:43.332Z,20.58
2023-05-05T00:37:42.019Z,15.90
2023-05-05T00:42:41.925Z,13.23
2023-05-05T00:47:41.586Z,11.63
2023-05-05T00:52:41.769Z,12.80
2023-05-05T00:57:40.658Z,11.88
2023-05-05T01:02:40.554Z,14.98
2023-05-05T01:07:49.525Z,12.63
2023-05-05T01:12:54.884Z,11.10
2023-05-05T01:18:00.945Z,11.82
2023-05-05T01:23:06.238Z,12.77
2023-05-05T01:28:25.558Z,10.23
2023-05-05T01:33:30.200Z,11.07
2023-05-05T01:38:35.977Z,12.70
2023-05-05T01:43:37.214Z,12.90
2023-05-05T01:48:38.608Z,9.80
2023-05-05T01:53:40.383Z,10.98
2023-05-05T01:58:39.449Z,12.10
2023-05-05T02:03:41.601Z,17.00
2023-05-05T02:08:41.790Z,13.20
2023-05-05T02:13:43.741Z,15.32
2023-05-05T02:18:49.660Z,13.85
2023-05-05T02:23:51.825Z,15.55
2023-05-05T02:28:57.686Z,18.60
2023-05-05T02:34:01.619Z,16.95
2023-05-05T02:39:12.259Z,14.88
2023-05-05T02:44:14.623Z,14.32
2023-05-05T02:49:16.323Z,16.20
2023-05-05T02:59:18.802Z,16.60
2023-05-05T03:04:27.824Z,16.10
2023-05-05T03:09:31.545Z,16.75
2023-05-05T03:14:37.458Z,15.65
2023-05-05T03:19:42.509Z,14.30
2023-05-05T03:24:41.579Z,15.18
2023-05-05T03:29:45.987Z,17.58
2023-05-05T03:34:49.283Z,18.40
2023-05-05T03:39:48.150Z,15.73
2023-05-05T03:44:47.299Z,14.93
2023-05-05T03:49:46.339Z,16.23
2023-05-05T03:54:47.346Z,15.02
2023-05-05T03:59:46.294Z,19.10
2023-05-05T04:04:45.638Z,18.52
2023-05-05T04:09:46.242Z,16.75
2023-05-05T04:14:45.072Z,16.83
2023-05-05T04:19:43.901Z,21.63
2023-05-05T04:24:42.821Z,17.63
2023-05-05T04:29:43.418Z,21.60
2023-05-05T04:34:42.557Z,24.08
2023-05-05T04:39:42.924Z,22.08
2023-05-05T04:44:43.251Z,24.58
2023-05-05T04:49:42.223Z,32.65
2023-05-05T04:54:41.265Z,23.40
2023-05-05T04:59:40.035Z,27.75
2023-05-05T05:04:40.329Z,20.30
2023-05-05T05:09:39.191Z,23.40
2023-05-05T05:14:38.711Z,24.80
2023-05-05T05:19:37.469Z,21.45
2023-05-05T05:24:37.690Z,23.60
2023-05-05T05:29:36.621Z,18.15
2023-05-05T05:34:35.526Z,18.17
2023-05-05T05:39:37.219Z,19.67
2023-05-05T05:44:36.592Z,19.50
2023-05-05T05:49:36.441Z,24.33
2023-05-05T05:54:37.095Z,20.15
2023-05-05T05:59:36.284Z,25.42
2023-05-05T06:04:35.805Z,19.52
2023-05-05T06:09:34.656Z,20.23
2023-05-05T06:14:34.896Z,18.92
2023-05-05T06:19:34.603Z,17.08
2023-05-05T06:24:33.650Z,20.80
2023-05-05T06:29:34.646Z,20.40
2023-05-05T06:34:33.458Z,19.73
2023-05-05T06:39:32.220Z,15.60
2023-05-05T06:44:34.390Z,23.15
2023-05-05T06:49:34.941Z,16.35
2023-05-05T06:54:33.589Z,24.58
2023-05-05T06:59:32.588Z,19.17
2023-05-05T07:04:31.745Z,14.48
2023-05-05T07:09:31.852Z,12.68
2023-05-05T07:14:30.699Z,14.30
2023-05-05T07:19:29.421Z,14.60
2023-05-05T07:24:28.479Z,21.05
2023-05-05T07:29:28.567Z,19.73
2023-05-05T07:34:27.908Z,15.90
2023-05-05T07:39:26.634Z,15.88
2023-05-05T07:44:25.742Z,14.88
2023-05-05T07:49:26.894Z,12.25
2023-05-05T07:54:25.671Z,11.55
2023-05-05T07:59:24.557Z,13.63
2023-05-05T08:04:23.301Z,9.25
2023-05-05T08:09:23.378Z,11.85
2023-05-05T08:14:22.157Z,11.95
2023-05-05T08:19:28.851Z,12.40
2023-05-05T08:24:29.746Z,14.35
2023-05-05T08:29:28.664Z,14.60
2023-05-05T08:34:27.362Z,18.02
2023-05-05T08:39:26.088Z,26.80
2023-05-05T08:44:27.343Z,33.53
2023-05-05T08:49:27.117Z,105.07
2023-05-05T08:54:33.308Z,14.18
2023-05-05T08:59:34.309Z,14.05
2023-05-05T09:04:33.683Z,12.55
2023-05-05T09:09:32.718Z,14.52
2023-05-05T09:14:33.350Z,12.13
2023-05-05T09:19:33.501Z,22.98
2023-05-05T09:24:32.221Z,20.35
2023-05-05T09:29:30.972Z,11.05
2023-05-05T09:34:29.968Z,14.13
2023-05-05T09:39:30.179Z,10.07
2023-05-05T09:44:36.432Z,10.75
2023-05-05T09:49:37.496Z,17.13
2023-05-05T09:54:37.669Z,13.17
2023-05-05T09:59:39.154Z,22.83
2023-05-05T10:04:37.853Z,11.40
2023-05-05T10:09:38.006Z,12.93
2023-05-05T10:14:37.467Z,9.57
2023-05-05T10:19:38.137Z,12.82
2023-05-05T10:24:41.485Z,11.68
2023-05-05T10:29:46.574Z,12.85
2023-05-05T10:34:52.986Z,12.55
2023-05-05T10:39:56.562Z,9.80
2023-05-05T10:44:55.265Z,10.38
2023-05-05T10:49:58.401Z,12.73
2023-05-05T10:55:09.065Z,10.70
2023-05-05T11:00:09.670Z,11.10
2023-05-05T11:05:14.480Z,7.30
2023-05-05T11:10:16.470Z,8.60
2023-05-05T11:15:37.665Z,10.65
2023-05-05T11:21:17.267Z,13.73
2023-05-05T11:26:19.178Z,10.02
2023-05-05T11:36:20.451Z,10.93
2023-05-05T11:46:23.259Z,10.02
2023-05-05T11:51:22.346Z,10.77
2023-05-05T11:56:23.340Z,9.18
2023-05-05T12:01:22.097Z,11.77
2023-05-05T12:06:20.889Z,14.10
2023-05-05T12:11:19.869Z,18.50
2023-05-05T12:16:20.374Z,14.55
2023-05-05T12:21:20.307Z,10.23
2023-05-05T12:26:26.824Z,9.27
2023-05-05T12:31:36.313Z,8.70
2023-05-05T12:36:37.891Z,10.10
2023-05-05T12:41:36.995Z,8.70
2023-05-05T12:46:50.488Z,9.18
2023-05-05T12:51:57.203Z,9.63
2023-05-05T12:56:56.419Z,8.65
2023-05-05T13:01:57.636Z,12.85
2023-05-05T13:07:13.437Z,10.55
2023-05-05T13:12:12.704Z,9.63
2023-05-05T13:17:13.346Z,7.03
2023-05-05T13:22:13.305Z,6.80
2023-05-05T13:27:12.655Z,6.10
2023-05-05T13:32:12.780Z,8.35
2023-05-05T13:37:14.526Z,6.70
2023-05-05T13:42:13.158Z,13.80
2023-05-05T13:47:14.103Z,5.85
2023-05-05T13:52:12.938Z,8.55
2023-05-05T13:57:12.485Z,6.80
2023-05-05T14:02:12.830Z,5.32
2023-05-05T14:07:11.965Z,6.22
2023-05-05T14:12:10.773Z,6.97
2023-05-05T14:17:09.438Z,6.95
2023-05-05T14:22:09.422Z,5.85
2023-05-05T14:27:08.121Z,7.15
2023-05-05T14:32:06.984Z,6.80
2023-05-05T14:37:05.692Z,6.85
2023-05-05T14:42:06.081Z,6.57
2023-05-05T14:47:04.849Z,6.80
2023-05-05T14:52:03.513Z,4.38
2023-05-05T14:57:02.454Z,6.47
2023-05-05T15:02:02.635Z,6.80
2023-05-05T15:07:01.394Z,8.30
2023-05-05T15:12:00.113Z,8.57
2023-05-05T15:16:58.830Z,6.38
2023-05-05T15:21:58.978Z,7.43
2023-05-05T15:26:57.738Z,6.20
2023-05-05T15:31:56.390Z,9.90
2023-05-05T15:36:55.271Z,11.02
2023-05-05T15:41:55.457Z,6.95
2023-05-05T15:46:54.440Z,10.40
2023-05-05T15:51:53.320Z,7.38
2023-05-05T15:56:54.452Z,10.45
2023-05-05T16:01:54.540Z,5.30
2023-05-05T16:06:53.266Z,7.70
2023-05-05T16:11:54.710Z,9.80
2023-05-05T16:16:54.882Z,7.90
2023-05-05T16:21:53.778Z,7.45
2023-05-05T16:26:52.610Z,8.00
2023-05-05T16:31:51.455Z,6.43
2023-05-05T16:36:51.509Z,10.50
2023-05-05T16:41:50.226Z,10.40
2023-05-05T16:46:48.875Z,8.90
2023-05-05T16:51:47.612Z,7.55
2023-05-05T16:56:47.714Z,11.55
2023-05-05T17:01:47.012Z,14.25
2023-05-05T17:06:46.012Z,8.68
2023-05-05T17:11:44.663Z,5.30
2023-05-05T17:16:44.891Z,5.00
2023-05-05T17:21:44.014Z,9.00
2023-05-05T17:26:42.782Z,10.82
2023-05-05T17:31:41.827Z,8.85
2023-05-05T17:36:41.937Z,10.00
2023-05-05T17:41:42.107Z,12.45
2023-05-05T17:46:40.836Z,10.77
2023-05-05T17:51:41.010Z,12.18
2023-05-05T17:56:39.729Z,11.27
2023-05-05T18:01:38.515Z,9.05
2023-05-05T18:06:37.314Z,11.55
2023-05-05T18:11:37.599Z,10.98
2023-05-05T18:16:36.345Z,11.52
2023-05-05T18:21:35.066Z,13.95
2023-05-05T18:26:33.769Z,16.23
2023-05-05T18:31:33.910Z,18.23
2023-05-05T18:36:32.706Z,25.90
2023-05-05T18:41:31.776Z,16.55
2023-05-05T18:46:30.571Z,72.43
2023-05-05T18:51:30.910Z,61.83
2023-05-05T18:56:29.611Z,60.72
2023-05-05T19:01:28.372Z,27.73
2023-05-05T19:06:27.396Z,23.00
2023-05-05T19:11:27.667Z,19.92
2023-05-05T19:16:27.740Z,21.20
2023-05-05T19:21:28.694Z,27.25
2023-05-05T19:26:29.246Z,35.63
2023-05-05T19:31:30.855Z,25.60
2023-05-05T19:36:31.644Z,27.07
2023-05-05T19:41:32.741Z,28.35
2023-05-05T19:46:31.565Z,25.90
2023-05-05T19:51:31.670Z,35.72
2023-05-05T19:56:31.925Z,25.58
2023-05-05T20:01:30.854Z,46.20
2023-05-05T20:06:29.792Z,36.22
2023-05-05T20:11:28.528Z,44.67
2023-05-05T20:16:28.794Z,34.47
2023-05-05T20:21:28.003Z,29.38
2023-05-05T20:26:26.737Z,31.77
2023-05-05T20:31:25.708Z,23.05
2023-05-05T20:36:26.746Z,21.63
2023-05-05T20:41:25.502Z,19.60
2023-05-05T20:46:24.412Z,22.83
2023-05-05T20:51:23.106Z,18.70
2023-05-05T20:56:23.139Z,17.67
2023-05-05T21:01:21.857Z,19.40
2023-05-05T21:06:20.605Z,18.95
2023-05-05T21:11:19.329Z,22.38
2023-05-05T21:16:19.538Z,21.90
2023-05-05T21:21:18.321Z,18.83
2023-05-05T21:26:17.138Z,18.40
2023-05-05T21:36:19.622Z,25.80
2023-05-05T21:41:18.343Z,29.42
2023-05-05T21:46:17.713Z,29.42
2023-05-05T21:51:16.563Z,36.17
2023-05-05T21:56:16.712Z,25.90
2023-05-05T22:01:15.399Z,27.45
2023-05-05T22:06:16.535Z,22.63
2023-05-05T22:11:16.993Z,21.83
2023-05-05T22:16:17.552Z,20.92
2023-05-05T22:21:16.408Z,20.38
2023-05-05T22:26:16.560Z,19.33
2023-05-05T22:31:15.371Z,23.08
2023-05-05T22:36:14.313Z,18.60
2023-05-05T22:41:13.561Z,20.15
2023-05-05T22:46:13.590Z,18.80
2023-05-05T22:51:12.544Z,21.85
2023-05-05T22:56:11.187Z,16.77
2023-05-05T23:01:09.941Z,27.42
2023-05-05T23:06:10.889Z,16.08
2023-05-05T23:11:09.518Z,16.40
2023-05-05T23:16:08.383Z,15.02
2023-05-05T23:21:07.092Z,18.35
2023-05-05T23:26:07.266Z,15.48
2023-05-05T23:31:06.041Z,15.40
2023-05-05T23:36:05.241Z,16.92
2023-05-05T23:41:03.927Z,15.10
2023-05-05T23:46:03.990Z,21.95
2023-05-05T23:51:02.654Z,19.98
2023-05-05T23:56:01.463Z,21.60
